createdAt,value
2019-02-21T00:02:22.761Z,65.77
2019-02-21T00:05:08.040Z,72.67
2019-02-21T00:07:53.098Z,70.13
2019-02-21T00:10:38.559Z,80.23
2019-02-21T00:13:23.770Z,67.57
2019-02-21T00:16:09.164Z,75.43
2019-02-21T00:18:54.496Z,75.30
2019-02-21T00:21:39.924Z,64.90
2019-02-21T00:24:25.592Z,75.97
2019-02-21T00:27:10.750Z,64.80
2019-02-21T00:29:55.987Z,63.47
2019-02-21T00:32:41.199Z,53.93
2019-02-21T00:35:26.732Z,53.73
2019-02-21T00:38:12.696Z,54.97
2019-02-21T00:40:57.929Z,59.27
2019-02-21T00:43:43.412Z,57.43
2019-02-21T00:46:28.666Z,55.20
2019-02-21T00:49:13.952Z,56.57
2019-02-21T00:51:59.404Z,54.03
2019-02-21T00:54:44.785Z,59.17
2019-02-21T00:57:30.045Z,59.90
2019-02-21T01:00:15.899Z,55.90
2019-02-21T01:03:01.101Z,61.03
2019-02-21T01:05:46.618Z,56.07
2019-02-21T01:08:31.889Z,59.23
2019-02-21T01:11:16.918Z,56.00
2019-02-21T01:14:02.220Z,61.50
2019-02-21T01:16:47.628Z,64.33
2019-02-21T01:19:32.620Z,62.13
2019-02-21T01:22:18.041Z,64.23
2019-02-21T01:25:05.303Z,62.17
2019-02-21T01:27:50.982Z,66.13
2019-02-21T01:30:36.255Z,61.50
2019-02-21T01:33:21.292Z,67.67
2019-02-21T01:36:06.744Z,62.93
2019-02-21T01:38:51.904Z,61.23
2019-02-21T01:41:36.741Z,71.53
2019-02-21T01:44:22.155Z,68.53
2019-02-21T01:47:07.497Z,63.23
2019-02-21T01:49:52.534Z,84.13
2019-02-21T01:52:37.439Z,70.10
2019-02-21T01:55:22.303Z,85.80
2019-02-21T01:58:07.359Z,76.30
2019-02-21T02:00:52.799Z,75.73
2019-02-21T02:03:38.933Z,78.17
2019-02-21T02:06:24.032Z,71.60
2019-02-21T02:09:11.103Z,64.00
2019-02-21T02:11:56.690Z,67.37
2019-02-21T02:14:41.930Z,76.10
2019-02-21T02:17:27.038Z,65.50
2019-02-21T02:20:12.224Z,69.87
2019-02-21T02:22:58.036Z,67.93
2019-02-21T02:25:43.420Z,71.63
2019-02-21T02:28:28.568Z,72.70
2019-02-21T02:31:22.578Z,72.13
2019-02-21T02:34:00.629Z,70.73
2019-02-21T02:36:45.838Z,67.93
2019-02-21T02:39:31.147Z,60.67
2019-02-21T02:42:16.363Z,65.97
2019-02-21T02:45:02.332Z,68.80
2019-02-21T02:47:47.544Z,71.23
2019-02-21T02:50:32.370Z,74.67
2019-02-21T02:53:17.677Z,72.00
2019-02-21T02:56:03.109Z,70.93
2019-02-21T02:58:48.385Z,62.97
2019-02-21T03:01:35.100Z,67.53
2019-02-21T03:04:20.576Z,68.33
2019-02-21T03:07:05.731Z,61.00
2019-02-21T03:09:50.769Z,66.30
2019-02-21T03:12:35.948Z,62.77
2019-02-21T03:15:20.772Z,64.60
2019-02-21T03:18:06.168Z,60.90
2019-02-21T03:20:51.477Z,74.73
2019-02-21T03:23:36.433Z,70.17
2019-02-21T03:26:21.282Z,77.47
2019-02-21T03:29:06.314Z,80.17
2019-02-21T03:31:54.962Z,79.90
2019-02-21T03:34:38.356Z,85.23
2019-02-21T03:37:23.731Z,84.43
2019-02-21T03:40:08.892Z,97.07
2019-02-21T03:42:53.885Z,88.53
2019-02-21T03:45:39.240Z,85.70
2019-02-21T03:48:24.547Z,81.53
2019-02-21T03:51:09.909Z,78.13
2019-02-21T03:53:55.292Z,90.83
2019-02-21T03:56:40.609Z,86.93
2019-02-21T03:59:25.943Z,77.93
2019-02-21T04:02:11.210Z,82.53
2019-02-21T04:04:57.017Z,77.90
2019-02-21T04:07:42.052Z,71.03
2019-02-21T04:10:27.105Z,64.50
2019-02-21T04:13:14.938Z,69.67
2019-02-21T04:15:59.008Z,63.17
2019-02-21T04:18:44.762Z,66.77
2019-02-21T04:21:30.037Z,66.30
2019-02-21T04:24:15.142Z,67.87
2019-02-21T04:27:00.038Z,59.87
2019-02-21T04:29:45.322Z,61.67
2019-02-21T04:32:30.560Z,61.77
2019-02-21T04:35:15.760Z,67.63
2019-02-21T04:38:01.292Z,71.93
2019-02-21T04:40:46.435Z,64.07
2019-02-21T04:43:31.705Z,60.53
2019-02-21T04:46:16.664Z,69.07
2019-02-21T04:49:01.492Z,64.40
2019-02-21T04:51:47.034Z,66.53
2019-02-21T04:54:32.408Z,65.60
2019-02-21T04:57:18.088Z,62.03
2019-02-21T05:00:06.547Z,60.53
2019-02-21T05:02:51.622Z,65.70
2019-02-21T05:05:37.114Z,57.73
2019-02-21T05:08:22.419Z,54.80
2019-02-21T05:11:07.538Z,59.47
2019-02-21T05:13:52.836Z,66.10
2019-02-21T05:16:37.914Z,53.77
2019-02-21T05:19:23.416Z,67.50
2019-02-21T05:22:08.559Z,60.60
2019-02-21T05:24:53.953Z,62.57
2019-02-21T05:27:39.690Z,64.87
2019-02-21T05:30:26.563Z,61.23
2019-02-21T05:33:28.465Z,58.07
2019-02-21T05:36:21.404Z,58.50
2019-02-21T05:39:14.272Z,69.60
2019-02-21T05:42:19.300Z,63.03
2019-02-21T05:45:18.931Z,68.43
2019-02-21T05:48:18.490Z,66.50
2019-02-21T05:51:14.557Z,74.80
2019-02-21T05:54:07.558Z,60.73
2019-02-21T05:56:54.749Z,64.17
2019-02-21T05:59:44.791Z,67.13
2019-02-21T06:02:34.610Z,77.63
2019-02-21T06:05:30.809Z,76.23
2019-02-21T06:08:23.708Z,84.03
2019-02-21T06:11:25.499Z,87.97
2019-02-21T06:14:12.504Z,92.17
2019-02-21T06:17:08.671Z,82.77
2019-02-21T06:20:01.308Z,79.87
2019-02-21T06:25:55.834Z,81.27
2019-02-21T06:28:53.628Z,79.23
2019-02-21T06:31:38.811Z,77.93
2019-02-21T06:34:24.079Z,83.37
2019-02-21T06:37:09.465Z,85.27
2019-02-21T06:39:54.791Z,95.43
2019-02-21T06:42:39.919Z,107.37
2019-02-21T06:45:24.741Z,98.10
2019-02-21T06:48:09.855Z,90.40
2019-02-21T06:50:55.169Z,97.20
2019-02-21T06:53:40.648Z,96.87
2019-02-21T06:56:25.957Z,95.87
2019-02-21T06:59:11.054Z,101.77
2019-02-21T07:01:56.423Z,97.40
2019-02-21T07:04:41.949Z,93.67
2019-02-21T07:07:27.034Z,87.47
2019-02-21T07:10:12.250Z,87.63
2019-02-21T07:12:57.501Z,114.67
2019-02-21T07:15:42.872Z,108.60
2019-02-21T07:18:28.903Z,109.10
2019-02-21T07:21:14.922Z,111.43
2019-02-21T07:24:00.064Z,109.10
2019-02-21T07:26:45.432Z,108.63
2019-02-21T07:29:30.646Z,97.73
2019-02-21T07:32:15.432Z,108.17
2019-02-21T07:35:00.923Z,113.43
2019-02-21T07:37:45.808Z,122.20
2019-02-21T07:40:30.651Z,124.87
2019-02-21T07:43:15.834Z,112.17
2019-02-21T07:46:01.214Z,117.33
2019-02-21T07:48:46.268Z,121.57
2019-02-21T07:51:31.531Z,117.67
2019-02-21T07:54:17.330Z,110.03
2019-02-21T07:57:02.621Z,117.83
2019-02-21T07:59:48.535Z,105.00
2019-02-21T08:02:33.555Z,100.33
2019-02-21T08:05:18.817Z,126.47
2019-02-21T08:08:04.269Z,118.53
2019-02-21T08:10:49.488Z,121.80
2019-02-21T08:13:35.218Z,124.87
2019-02-21T08:16:20.352Z,110.00
2019-02-21T08:19:05.700Z,109.07
2019-02-21T08:21:50.990Z,111.73
2019-02-21T08:24:36.623Z,102.97
2019-02-21T08:27:22.018Z,101.53
2019-02-21T08:30:10.718Z,104.60
2019-02-21T08:33:00.193Z,101.33
2019-02-21T08:35:45.648Z,99.73
2019-02-21T08:38:30.766Z,101.63
2019-02-21T08:41:16.222Z,98.53
2019-02-21T08:44:03.886Z,98.83
2019-02-21T08:46:49.104Z,92.50
2019-02-21T08:49:34.206Z,105.17
2019-02-21T08:52:19.001Z,93.77
2019-02-21T08:55:04.738Z,90.77
2019-02-21T08:57:49.726Z,94.93
2019-02-21T09:00:35.069Z,97.77
2019-02-21T09:03:20.547Z,96.03
2019-02-21T09:06:05.603Z,109.30
2019-02-21T09:08:51.851Z,90.90
2019-02-21T09:11:36.842Z,92.47
2019-02-21T09:14:22.926Z,105.47
2019-02-21T09:17:08.223Z,93.13
2019-02-21T09:19:53.338Z,86.97
2019-02-21T09:22:38.801Z,107.50
2019-02-21T09:25:23.696Z,97.23
2019-02-21T09:28:09.002Z,97.37
2019-02-21T09:30:54.162Z,97.70
2019-02-21T09:33:39.256Z,108.30
2019-02-21T09:36:24.528Z,105.97
2019-02-21T09:39:10.032Z,98.97
2019-02-21T09:41:55.231Z,110.23
2019-02-21T09:44:41.066Z,116.13
2019-02-21T09:47:46.138Z,105.47
2019-02-21T09:50:31.271Z,120.43
2019-02-21T09:53:16.117Z,112.77
2019-02-21T09:56:01.235Z,114.03
2019-02-21T09:58:46.455Z,130.90
2019-02-21T10:01:31.811Z,123.50
2019-02-21T10:04:17.019Z,109.53
2019-02-21T10:07:02.723Z,102.93
2019-02-21T10:09:47.909Z,117.17
2019-02-21T10:12:33.373Z,109.73
2019-02-21T10:15:18.639Z,116.50
2019-02-21T10:18:03.689Z,121.83
2019-02-21T10:20:48.802Z,114.43
2019-02-21T10:23:34.458Z,130.80
2019-02-21T10:26:19.418Z,119.97
2019-02-21T10:29:04.382Z,130.10
2019-02-21T10:31:49.418Z,124.93
2019-02-21T10:34:42.694Z,126.57
2019-02-21T10:37:22.012Z,131.60
2019-02-21T10:40:09.944Z,120.30
2019-02-21T10:42:54.857Z,126.87
2019-02-21T10:45:47.864Z,132.07
2019-02-21T10:48:27.201Z,140.83
2019-02-21T10:51:12.282Z,141.60
2019-02-21T10:53:57.558Z,139.40
2019-02-21T10:56:42.659Z,132.70
2019-02-21T10:59:27.763Z,137.53
2019-02-21T11:02:13.579Z,131.47
2019-02-21T11:04:58.790Z,129.87
2019-02-21T11:07:44.315Z,140.37
2019-02-21T11:10:30.055Z,129.40
2019-02-21T11:13:15.477Z,141.30
2019-02-21T11:16:00.290Z,143.27
2019-02-21T11:18:46.036Z,136.07
2019-02-21T11:21:30.802Z,138.80
2019-02-21T11:24:16.598Z,144.63
2019-02-21T11:27:02.079Z,151.30
2019-02-21T11:29:47.022Z,145.83
2019-02-21T11:32:31.872Z,153.40
2019-02-21T11:35:17.207Z,147.80
2019-02-21T11:38:02.670Z,163.83
2019-02-21T11:40:47.682Z,149.50
2019-02-21T11:43:32.439Z,149.07
2019-02-21T11:46:17.708Z,159.70
2019-02-21T11:49:03.629Z,143.93
2019-02-21T11:51:49.026Z,160.40
2019-02-21T11:54:34.223Z,147.57
2019-02-21T11:57:19.009Z,152.17
2019-02-21T12:00:16.661Z,150.77
2019-02-21T12:03:01.843Z,145.93
2019-02-21T12:05:46.906Z,140.43
2019-02-21T12:08:31.867Z,137.93
2019-02-21T12:11:17.521Z,159.67
2019-02-21T12:14:02.491Z,152.87
2019-02-21T12:16:47.624Z,148.97
2019-02-21T12:19:32.794Z,144.83
2019-02-21T12:22:18.212Z,154.57
2019-02-21T12:25:06.911Z,146.27
2019-02-21T12:27:51.879Z,148.53
2019-02-21T12:30:37.085Z,157.33
2019-02-21T12:33:22.375Z,159.47
2019-02-21T12:36:07.679Z,176.10
2019-02-21T12:38:52.718Z,177.40
2019-02-21T12:41:37.416Z,163.33
2019-02-21T12:44:22.739Z,192.43
2019-02-21T12:47:08.035Z,173.53
2019-02-21T12:49:55.315Z,162.17
2019-02-21T12:52:40.109Z,156.73
2019-02-21T12:55:28.341Z,160.43
2019-02-21T12:58:12.067Z,161.10
2019-02-21T13:00:57.366Z,166.83
2019-02-21T13:03:42.825Z,170.00
2019-02-21T13:06:28.255Z,169.43
2019-02-21T13:09:13.333Z,171.87
2019-02-21T13:11:58.375Z,167.40
2019-02-21T13:14:43.714Z,164.33
2019-02-21T13:17:29.293Z,157.13
2019-02-21T13:20:14.565Z,157.33
2019-02-21T13:22:59.634Z,168.13
2019-02-21T13:25:44.440Z,164.20
2019-02-21T13:28:30.156Z,166.13
2019-02-21T13:31:15.012Z,154.27
2019-02-21T13:34:19.692Z,144.23
2019-02-21T13:37:04.528Z,146.27
2019-02-21T13:39:49.893Z,143.63
2019-02-21T13:42:34.996Z,142.37
2019-02-21T13:45:20.238Z,146.87
2019-02-21T13:48:05.415Z,141.40
2019-02-21T13:50:50.671Z,133.07
2019-02-21T13:53:35.876Z,132.27
2019-02-21T13:56:21.029Z,142.67
2019-02-21T13:59:06.171Z,139.97
2019-02-21T14:01:51.681Z,137.77
2019-02-21T14:04:36.805Z,129.43
2019-02-21T14:07:22.081Z,135.93
2019-02-21T14:10:12.443Z,140.83
2019-02-21T14:12:57.837Z,160.43
2019-02-21T14:15:42.945Z,160.83
2019-02-21T14:18:47.740Z,152.77
2019-02-21T14:21:33.077Z,148.83
2019-02-21T14:24:17.905Z,152.17
2019-02-21T14:27:03.411Z,157.57
2019-02-21T14:29:49.038Z,159.03
2019-02-21T14:32:34.943Z,126.03
2019-02-21T14:35:20.237Z,140.13
2019-02-21T14:38:05.454Z,138.83
2019-02-21T14:40:50.926Z,136.93
2019-02-21T14:43:36.145Z,131.77
2019-02-21T14:46:21.330Z,131.60
2019-02-21T14:49:07.178Z,138.77
2019-02-21T14:51:52.600Z,152.63
2019-02-21T14:54:38.191Z,147.10
2019-02-21T14:57:23.188Z,140.27
2019-02-21T15:00:22.157Z,139.63
2019-02-21T15:03:07.303Z,147.37
2019-02-21T15:05:52.550Z,148.77
2019-02-21T15:08:38.252Z,146.43
2019-02-21T15:11:23.109Z,158.30
2019-02-21T15:14:08.653Z,144.03
2019-02-21T15:16:53.576Z,146.37
2019-02-21T15:19:38.815Z,152.57
2019-02-21T15:22:24.027Z,160.23
2019-02-21T15:25:09.437Z,165.97
2019-02-21T15:27:56.409Z,168.90
2019-02-21T15:30:41.651Z,161.03
2019-02-21T15:33:27.449Z,171.67
2019-02-21T15:36:12.454Z,226.17
2019-02-21T15:38:57.652Z,218.30
2019-02-21T15:41:42.844Z,194.03
2019-02-21T15:44:28.076Z,186.07
2019-02-21T15:47:13.747Z,186.70
2019-02-21T15:49:58.772Z,189.70
2019-02-21T15:52:45.627Z,183.33
2019-02-21T15:55:32.189Z,189.63
2019-02-21T15:58:17.689Z,195.23
2019-02-21T16:01:02.805Z,187.33
2019-02-21T16:03:47.800Z,194.27
2019-02-21T16:06:33.099Z,197.93
2019-02-21T16:09:18.155Z,188.67
2019-02-21T16:12:03.760Z,196.60
2019-02-21T16:14:49.373Z,186.03
2019-02-21T16:17:37.253Z,215.93
2019-02-21T16:20:21.754Z,203.17
2019-02-21T16:23:06.718Z,210.87
2019-02-21T16:25:52.565Z,213.37
2019-02-21T16:28:37.904Z,223.67
2019-02-21T16:31:23.030Z,205.97
2019-02-21T16:34:09.277Z,240.60
2019-02-21T16:37:02.006Z,244.47
2019-02-21T16:39:42.126Z,235.63
2019-02-21T16:42:27.774Z,240.63
2019-02-21T16:45:15.167Z,240.33
2019-02-21T16:48:00.483Z,234.37
2019-02-21T16:50:48.341Z,242.40
2019-02-21T16:53:32.572Z,265.70
2019-02-21T16:56:18.190Z,253.97
2019-02-21T16:59:03.971Z,257.77
2019-02-21T17:01:49.085Z,259.57
2019-02-21T17:04:34.507Z,262.97
2019-02-21T17:07:20.341Z,255.13
2019-02-21T17:10:21.131Z,274.73
2019-02-21T17:13:03.815Z,267.07
2019-02-21T17:15:48.982Z,270.60
2019-02-21T17:18:34.610Z,296.03
2019-02-21T17:21:21.154Z,317.27
2019-02-21T17:24:07.270Z,331.83
2019-02-21T17:26:52.716Z,324.90
2019-02-21T17:29:38.298Z,358.07
2019-02-21T17:32:23.661Z,329.87
2019-02-21T17:35:09.483Z,337.13
2019-02-21T17:37:54.678Z,365.10
2019-02-21T17:40:39.930Z,333.83
2019-02-21T17:43:25.150Z,327.57
2019-02-21T17:46:10.365Z,313.83
2019-02-21T17:48:55.482Z,311.47
2019-02-21T17:51:41.074Z,334.63
2019-02-21T17:54:27.713Z,341.00
2019-02-21T17:57:13.167Z,311.77
2019-02-21T17:59:58.324Z,291.17
2019-02-21T18:02:43.452Z,316.27
2019-02-21T18:05:28.968Z,293.17
2019-02-21T18:08:14.934Z,276.20
2019-02-21T18:11:00.709Z,317.17
2019-02-21T18:13:45.792Z,281.30
2019-02-21T18:16:31.168Z,253.63
2019-02-21T18:19:16.527Z,247.80
2019-02-21T18:22:02.328Z,258.57
2019-02-21T18:24:47.557Z,228.97
2019-02-21T18:27:33.286Z,237.97
2019-02-21T18:30:18.723Z,231.33
2019-02-21T18:33:03.806Z,207.87
2019-02-21T18:35:48.908Z,278.77
2019-02-21T18:38:34.815Z,221.33
2019-02-21T18:41:19.710Z,205.90
2019-02-21T18:44:04.996Z,193.83
2019-02-21T18:46:49.943Z,211.93
2019-02-21T18:49:35.165Z,194.80
2019-02-21T18:52:20.675Z,185.50
2019-02-21T18:55:07.493Z,157.67
2019-02-21T18:57:52.995Z,116.80
2019-02-21T19:00:38.282Z,114.13
2019-02-21T19:03:24.481Z,112.60
2019-02-21T19:06:10.127Z,110.90
2019-02-21T19:08:54.909Z,105.00
2019-02-21T19:11:40.682Z,107.37
2019-02-21T19:14:26.077Z,111.73
2019-02-21T19:17:11.271Z,104.17
2019-02-21T19:19:57.810Z,117.87
2019-02-21T19:22:42.757Z,114.40
2019-02-21T19:25:28.784Z,109.50
2019-02-21T19:28:14.311Z,110.17
2019-02-21T19:31:03.405Z,104.93
2019-02-21T19:33:48.676Z,91.33
2019-02-21T19:36:33.932Z,72.53
2019-02-21T19:39:20.044Z,69.00
2019-02-21T19:42:05.661Z,67.93
2019-02-21T19:44:52.594Z,81.87
2019-02-21T19:47:37.872Z,86.17
2019-02-21T19:50:23.199Z,81.37
2019-02-21T19:53:08.215Z,67.90
2019-02-21T19:55:56.156Z,55.73
2019-02-21T19:59:15.411Z,52.63
2019-02-21T20:02:01.297Z,48.47
2019-02-21T20:04:46.677Z,53.40
2019-02-21T20:07:32.035Z,58.43
2019-02-21T20:10:21.292Z,52.57
2019-02-21T20:16:20.383Z,54.40
2019-02-21T20:19:05.589Z,52.47
2019-02-21T20:21:54.416Z,42.63
2019-02-21T20:24:38.809Z,41.07
2019-02-21T20:27:24.236Z,38.80
2019-02-21T20:30:17.335Z,36.00
2019-02-21T20:33:02.592Z,35.83
2019-02-21T20:35:49.538Z,38.33
2019-02-21T20:38:35.810Z,28.83
2019-02-21T20:41:21.224Z,28.53
2019-02-21T20:44:07.012Z,27.40
2019-02-21T20:46:51.873Z,31.43
2019-02-21T20:49:38.691Z,35.40
2019-02-21T20:52:24.592Z,41.20
2019-02-21T20:55:10.334Z,38.57
2019-02-21T20:57:55.610Z,35.80
2019-02-21T21:00:41.591Z,38.30
2019-02-21T21:03:26.674Z,36.77
2019-02-21T21:06:12.291Z,34.77
2019-02-21T21:08:57.710Z,36.93
2019-02-21T21:11:43.016Z,39.73
2019-02-21T21:14:29.641Z,42.20
2019-02-21T21:17:16.053Z,39.30
2019-02-21T21:20:01.920Z,278.87
2019-02-21T21:22:48.565Z,92.40
2019-02-21T21:25:35.831Z,24.87
2019-02-21T21:28:21.107Z,29.20
2019-02-21T21:31:06.390Z,27.57
2019-02-21T21:33:51.847Z,30.93
2019-02-21T21:36:42.659Z,25.53
2019-02-21T21:39:27.817Z,26.37
2019-02-21T21:42:13.045Z,26.00
2019-02-21T21:44:59.014Z,26.83
2019-02-21T21:47:44.452Z,26.93
2019-02-21T21:50:29.836Z,24.93
2019-02-21T21:53:15.328Z,25.23
2019-02-21T21:56:00.487Z,28.10
2019-02-21T21:58:45.523Z,29.27
2019-02-21T22:01:30.835Z,129.60
2019-02-21T22:04:16.092Z,46.60
2019-02-21T22:07:01.219Z,46.17
2019-02-21T22:09:47.005Z,51.20
2019-02-21T22:12:33.378Z,49.23
2019-02-21T22:15:19.927Z,53.80
2019-02-21T22:18:05.253Z,55.63
2019-02-21T22:20:50.393Z,59.40
2019-02-21T22:23:35.667Z,62.70
2019-02-21T22:26:23.487Z,57.53
2019-02-21T22:29:08.990Z,52.20
2019-02-21T22:31:55.122Z,50.40
2019-02-21T22:34:40.357Z,45.80
2019-02-21T22:37:25.620Z,50.00
2019-02-21T22:40:13.730Z,37.67
2019-02-21T22:42:59.150Z,36.50
2019-02-21T22:45:44.571Z,41.27
2019-02-21T22:48:29.738Z,39.63
2019-02-21T22:51:15.172Z,30.77
2019-02-21T22:54:00.366Z,35.80
2019-02-21T22:56:45.628Z,34.17
2019-02-21T22:59:31.037Z,34.17
2019-02-21T23:02:16.475Z,35.63
2019-02-21T23:05:23.623Z,36.47
2019-02-21T23:08:12.835Z,36.57
2019-02-21T23:10:58.331Z,31.23
2019-02-21T23:13:43.907Z,40.10
2019-02-21T23:16:50.734Z,33.30
2019-02-21T23:20:08.636Z,31.77
2019-02-21T23:22:53.752Z,29.37
2019-02-21T23:25:38.939Z,28.67
2019-02-21T23:28:24.150Z,27.63
2019-02-21T23:31:09.570Z,27.23
2019-02-21T23:33:56.586Z,28.67
2019-02-21T23:36:43.060Z,31.23
2019-02-21T23:39:37.931Z,31.20
2019-02-21T23:42:15.692Z,32.13
2019-02-21T23:45:01.340Z,27.93
2019-02-21T23:47:49.828Z,28.07
2019-02-21T23:50:34.098Z,25.10
2019-02-21T23:53:19.472Z,25.63
2019-02-21T23:56:04.662Z,27.53
2019-02-21T23:58:49.981Z,27.57
